createdAt,value
2022-10-17T00:00:42.207Z,19.20
2022-10-17T00:07:02.290Z,17.61
2022-10-17T00:13:40.261Z,18.40
2022-10-17T00:20:27.116Z,18.88
2022-10-17T00:25:59.537Z,17.41
2022-10-17T00:32:34.412Z,17.75
2022-10-17T00:39:16.873Z,19.42
2022-10-17T00:46:00.492Z,17.67
2022-10-17T00:52:42.972Z,18.51
2022-10-17T00:59:25.608Z,18.79
2022-10-17T01:06:09.918Z,17.25
2022-10-17T01:12:45.128Z,18.29
2022-10-17T01:19:17.148Z,18.88
2022-10-17T01:25:31.097Z,17.20
2022-10-17T01:31:15.450Z,18.09
2022-10-17T01:37:40.258Z,18.91
2022-10-17T01:44:31.735Z,17.22
2022-10-17T01:51:01.742Z,18.18
2022-10-17T01:57:44.966Z,18.46
2022-10-17T02:04:27.514Z,16.89
2022-10-17T02:10:53.393Z,17.89
2022-10-17T02:17:23.306Z,18.59
2022-10-17T02:23:50.261Z,16.97
2022-10-17T02:30:01.056Z,17.93
2022-10-17T02:36:25.350Z,18.51
2022-10-17T02:43:07.941Z,16.81
2022-10-17T08:30:20.452Z,19.98
2022-10-17T08:35:44.824Z,19.83
2022-10-17T08:41:14.301Z,19.66
2022-10-17T08:46:39.965Z,19.49
2022-10-17T08:52:23.265Z,19.40
2022-10-17T08:57:45.076Z,19.30
2022-10-17T09:03:19.959Z,19.22
2022-10-17T09:08:48.903Z,19.24
2022-10-17T09:14:37.977Z,19.34
2022-10-17T09:20:22.809Z,19.42
2022-10-17T09:26:46.636Z,19.49
2022-10-17T09:32:29.185Z,19.58
2022-10-17T09:37:52.330Z,19.70
2022-10-17T09:43:15.653Z,19.83
2022-10-17T09:48:48.779Z,19.96
2022-10-17T09:54:43.379Z,20.14
2022-10-17T10:00:52.752Z,20.33
2022-10-17T10:06:40.975Z,20.51
2022-10-17T10:12:18.827Z,20.69
2022-10-17T10:18:05.133Z,20.83
2022-10-17T10:23:42.607Z,21.01
2022-10-17T10:29:43.769Z,21.18
2022-10-17T10:35:24.153Z,21.35
2022-10-17T10:41:26.030Z,21.54
2022-10-17T10:47:51.687Z,21.76
2022-10-17T10:53:48.434Z,21.95
2022-10-17T10:59:26.715Z,22.10
2022-10-17T11:05:11.663Z,22.26
2022-10-17T11:11:07.304Z,22.36
2022-10-17T11:16:42.633Z,22.49
2022-10-17T11:22:13.307Z,22.56
2022-10-17T11:27:35.621Z,22.59
2022-10-17T11:33:04.698Z,22.65
2022-10-17T11:38:43.295Z,22.72
2022-10-17T11:44:11.685Z,22.73
2022-10-17T11:49:43.812Z,22.79
2022-10-17T11:55:19.766Z,22.91
2022-10-17T12:01:02.836Z,23.05
2022-10-17T12:06:43.067Z,23.24
2022-10-17T12:12:05.086Z,23.46
2022-10-17T12:17:40.737Z,23.70
2022-10-17T12:23:33.667Z,23.93
2022-10-17T12:28:57.541Z,24.18
2022-10-17T12:34:24.877Z,24.41
2022-10-17T12:39:47.969Z,24.61
2022-10-17T12:46:14.547Z,24.75
2022-10-17T12:52:46.317Z,25.01
2022-10-17T12:58:19.353Z,25.10
2022-10-17T13:04:21.587Z,25.22
2022-10-17T13:09:45.832Z,25.28
2022-10-17T13:15:08.582Z,25.34
2022-10-17T13:20:31.942Z,25.38
2022-10-17T13:26:21.031Z,25.45
2022-10-17T13:32:06.035Z,25.58
2022-10-17T13:37:28.645Z,25.77
2022-10-17T13:42:52.636Z,25.92
2022-10-17T13:48:27.039Z,25.99
2022-10-17T13:53:49.149Z,26.05
2022-10-17T13:59:47.904Z,26.15
2022-10-17T14:05:23.708Z,26.24
2022-10-17T14:10:46.411Z,26.31
2022-10-17T14:16:10.961Z,26.35
2022-10-17T14:21:43.344Z,26.40
2022-10-17T14:27:53.044Z,26.47
2022-10-17T14:33:21.512Z,26.45
2022-10-17T14:38:52.135Z,26.47
2022-10-17T14:44:25.685Z,26.51
2022-10-17T14:49:51.910Z,26.54
2022-10-17T14:55:23.950Z,26.52
2022-10-17T15:00:45.799Z,26.45
2022-10-17T15:06:21.354Z,26.33
2022-10-17T15:11:43.337Z,26.14
2022-10-17T15:17:30.597Z,25.96
2022-10-17T15:23:04.860Z,25.72
2022-10-17T15:28:27.556Z,25.47
2022-10-17T15:34:05.358Z,25.17
2022-10-17T15:39:27.288Z,24.80
2022-10-17T15:44:51.368Z,24.38
2022-10-17T15:50:17.731Z,23.96
2022-10-17T15:55:39.707Z,23.53
2022-10-17T16:01:25.921Z,23.17
2022-10-17T16:06:58.799Z,22.82
2022-10-17T16:12:31.369Z,22.49
2022-10-17T16:18:06.606Z,22.20
2022-10-17T16:23:31.537Z,21.94
2022-10-17T16:29:55.680Z,21.75
2022-10-17T16:35:58.623Z,21.60
2022-10-17T16:42:41.330Z,21.50
2022-10-17T16:49:24.334Z,21.36
2022-10-17T16:55:15.760Z,21.24
2022-10-17T17:01:32.392Z,21.14
2022-10-17T17:07:09.603Z,21.07
2022-10-17T17:12:39.638Z,20.98
2022-10-17T17:18:05.270Z,20.86
2022-10-17T17:23:29.072Z,20.70
2022-10-17T17:28:51.580Z,20.49
2022-10-17T17:34:17.254Z,20.30
2022-10-17T17:45:42.654Z,19.85
2022-10-17T17:51:28.401Z,19.66
2022-10-17T17:57:14.175Z,19.34
2022-10-17T18:02:47.928Z,19.02
2022-10-17T18:08:35.289Z,18.73
2022-10-17T18:14:40.142Z,18.44
2022-10-17T18:20:30.641Z,18.19
2022-10-17T18:27:12.862Z,17.96
2022-10-17T18:32:59.903Z,17.72
2022-10-17T18:38:22.278Z,17.56
2022-10-17T18:43:54.690Z,17.41
2022-10-17T18:49:25.399Z,17.28
2022-10-17T18:54:54.767Z,17.15
2022-10-17T19:00:17.897Z,17.04
2022-10-17T19:05:41.026Z,16.94
2022-10-17T19:11:08.504Z,16.85
2022-10-17T19:16:34.413Z,16.77
2022-10-17T19:21:57.073Z,16.69
2022-10-17T19:27:20.748Z,16.61
2022-10-17T19:32:42.416Z,16.52
2022-10-17T19:38:04.661Z,16.45
2022-10-17T19:43:27.709Z,17.72
2022-10-17T19:48:51.081Z,19.54
2022-10-17T19:54:18.867Z,18.33
2022-10-17T19:59:41.320Z,17.66
2022-10-17T20:05:18.509Z,17.28
2022-10-17T20:10:43.911Z,16.97
2022-10-17T20:16:07.489Z,16.71
2022-10-17T20:21:35.573Z,16.48
2022-10-17T20:27:27.819Z,17.75
2022-10-17T20:32:56.721Z,19.43
2022-10-17T20:38:18.890Z,18.09
2022-10-17T20:43:57.106Z,17.38
2022-10-17T20:49:40.907Z,16.92
2022-10-17T20:55:11.657Z,16.54
2022-10-17T21:00:33.984Z,16.24
2022-10-17T21:05:57.042Z,17.41
2022-10-17T21:11:22.292Z,19.09
2022-10-17T21:16:45.138Z,17.71
2022-10-17T21:22:14.840Z,16.92
2022-10-17T21:27:42.064Z,16.39
2022-10-17T21:33:04.569Z,16.02
2022-10-17T21:38:26.845Z,15.73
2022-10-17T21:44:54.902Z,16.85
2022-10-17T21:51:38.931Z,18.23
2022-10-17T21:58:21.793Z,16.84
2022-10-17T22:05:14.608Z,16.21
2022-10-17T22:11:58.470Z,15.76
2022-10-17T22:18:41.477Z,15.37
2022-10-17T22:25:24.751Z,17.11
2022-10-17T22:32:08.019Z,17.98
2022-10-17T22:38:51.300Z,16.42
2022-10-17T22:45:34.318Z,15.69
2022-10-17T22:52:18.164Z,17.21
2022-10-17T22:59:00.911Z,18.12
2022-10-17T23:05:44.127Z,16.59
2022-10-17T23:12:27.229Z,15.82
2022-10-17T23:19:10.025Z,15.32
2022-10-17T23:25:52.905Z,14.93
2022-10-17T23:32:35.925Z,16.52
2022-10-17T23:39:18.916Z,17.51
2022-10-17T23:46:01.781Z,16.15
2022-10-17T23:52:44.596Z,15.52
2022-10-17T23:59:28.565Z,15.09
